Four Marks, United Kingdom
Current Conditions -  °F | °C
As of 6:50 AM on Thursday 23 Oct 2014 (Local Time) from EGVO Reporting Station
Overcast Overcast  
Wind Chill: 11°   Ceiling: 3000
Heat Index: 11°   Visibility: 6mi
Dew Point:   Wind: 9mph
Humidity: 76%   Direction: 200°SSW
Pressure: 30.15"   Gusts: NA
Location:  51.11°N, 1.05°W
Report Text: EGVO 230550Z 20008KT 9999 OVC030 11/07 Q1021 BLU
Loading
Personal Weather Stations






























Interactive Weather Map
Tropical Storm Tracking
New forecast layout! Learn more

10-Day Weather Forecast

Advertisements
Track Severe Weather on mobile